Time;durP1;ratioP1;P1;durP2;ratioP2;P2;SDS_P1;SDS_P2;PMS_P1;PMS_P2;Temp;Humidity;BMP_temperature;BMP_pressure;BME280_temperature;BME280_humidity;BME280_pressure;Samples;Min_cycle;Max_cycle;Signal;HPM_P1;HPM_P2
2022/11/25 00:02:26;;;;;;;0.70;0.70;;;;;;;9.57;83.57;99055.41;5073073;28;20196;-67
2022/11/25 00:04:53;;;;;;;0.50;0.50;;;;;;;9.57;83.80;99056.25;5073379;28;20200;-67
2022/11/25 00:07:20;;;;;;;0.50;0.50;;;;;;;9.58;84.34;99059.66;5071973;28;20261;-68
2022/11/25 00:09:46;;;;;;;0.40;0.40;;;;;;;9.57;84.64;99065.63;5073063;28;20638;-67
2022/11/25 00:12:14;;;;;;;0.60;0.60;;;;;;;9.56;84.06;99056.31;5072858;28;20258;-68
2022/11/25 00:14:41;;;;;;;0.60;0.60;;;;;;;9.58;84.08;99059.66;5073453;28;20721;-67
2022/11/25 00:17:08;;;;;;;0.90;0.90;;;;;;;9.54;83.88;99058.06;5073131;28;20207;-68
2022/11/25 00:19:35;;;;;;;0.70;0.70;;;;;;;9.60;84.16;99060.41;5072950;28;20207;-67
2022/11/25 00:22:01;;;;;;;0.53;0.53;;;;;;;9.55;84.26;99057.19;5072491;28;20196;-67
2022/11/25 00:24:28;;;;;;;0.60;0.60;;;;;;;9.54;84.86;99065.75;5072873;28;20196;-67
2022/11/25 00:26:55;;;;;;;0.77;0.77;;;;;;;9.50;84.44;99060.72;5072913;28;20572;-67
2022/11/25 00:29:23;;;;;;;0.57;0.57;;;;;;;9.52;84.53;99063.25;5072519;28;20200;-67
2022/11/25 00:31:50;;;;;;;0.57;0.57;;;;;;;9.53;84.41;99059.81;5072612;28;20196;-67
2022/11/25 00:34:17;;;;;;;0.50;0.50;;;;;;;9.52;84.15;99062.41;5072470;28;20200;-68
2022/11/25 00:36:44;;;;;;;0.63;0.63;;;;;;;9.55;84.47;99057.19;5072569;28;20192;-67
2022/11/25 00:39:12;;;;;;;0.60;0.60;;;;;;;9.54;84.25;99063.19;5072608;28;20196;-68
2022/11/25 00:44:38;;;;;;;0.50;0.50;;;;;;;9.57;83.82;99068.19;5070939;28;20729;-68
2022/11/25 00:47:07;;;;;;;0.40;0.40;;;;;;;9.54;83.85;99068.28;5070546;28;20227;-68
2022/11/25 00:49:34;;;;;;;0.53;0.53;;;;;;;9.54;83.71;99065.75;5071641;28;20674;-68
2022/11/25 00:52:02;;;;;;;0.53;0.53;;;;;;;9.54;83.18;99065.75;5071127;28;20228;-67
2022/11/25 00:54:28;;;;;;;0.60;0.60;;;;;;;9.56;82.90;99066.53;5071814;28;20291;-68
2022/11/25 00:56:55;;;;;;;0.50;0.50;;;;;;;9.54;83.41;99065.75;5072261;28;20192;-67
2022/11/25 00:59:22;;;;;;;0.70;0.70;;;;;;;9.52;83.01;99059.84;5072012;28;20674;-67
2022/11/25 01:01:50;;;;;;;0.60;0.60;;;;;;;9.52;82.78;99062.41;5072000;28;20196;-67
2022/11/25 01:04:17;;;;;;;0.40;0.40;;;;;;;9.55;83.25;99067.41;5071764;28;20588;-67
2022/11/25 01:06:44;;;;;;;0.60;0.60;;;;;;;9.53;82.98;99064.09;5071684;28;20223;-67
2022/11/25 01:09:14;;;;;;;0.50;0.50;;;;;;;9.51;83.35;99061.56;5072022;28;20679;-67
2022/11/25 01:11:41;;;;;;;0.60;0.60;;;;;;;9.50;83.13;99070.09;5071607;28;20215;-67
2022/11/25 01:14:08;;;;;;;0.60;0.60;;;;;;;9.49;83.31;99063.34;5072104;28;20623;-67
2022/11/25 01:16:35;;;;;;;0.50;0.50;;;;;;;9.48;83.42;99067.63;5071913;28;20267;-68
2022/11/25 01:19:04;;;;;;;0.50;0.50;;;;;;;9.46;83.01;99069.41;5071790;28;20249;-67
2022/11/25 01:21:32;;;;;;;0.50;0.50;;;;;;;9.47;83.57;99071.03;5070980;28;20203;-67
2022/11/25 01:24:00;;;;;;;0.57;0.57;;;;;;;9.44;83.20;99068.59;5071609;28;20257;-67
2022/11/25 01:26:28;;;;;;;0.57;0.57;;;;;;;9.47;83.02;99070.22;5071758;28;20200;-68
2022/11/25 01:28:57;;;;;;;0.80;0.80;;;;;;;9.30;82.78;99042.63;5071477;28;20204;-67
2022/11/25 01:31:25;;;;;;;0.70;0.70;;;;;;;9.40;83.46;99067.00;5071605;28;20222;-67
2022/11/25 01:33:55;;;;;;;0.40;0.40;;;;;;;9.44;82.78;99076.25;5071211;28;20196;-67
2022/11/25 01:36:24;;;;;;;0.63;0.63;;;;;;;9.46;83.32;99066.00;5071706;28;20196;-67
2022/11/25 01:38:51;;;;;;;0.60;0.60;;;;;;;9.43;83.23;99066.91;5069427;28;20204;-67
2022/11/25 01:41:18;;;;;;;0.70;0.70;;;;;;;9.42;83.41;99070.38;5070044;28;20196;-68
2022/11/25 01:44:04;;;;;;;0.70;0.70;;;;;;;9.47;83.29;99075.31;5070730;28;20269;-68
2022/11/25 01:46:42;;;;;;;0.67;0.67;;;;;;;9.45;83.08;99067.72;5069085;28;20200;-67
2022/11/25 01:49:14;;;;;;;0.43;0.43;;;;;;;9.43;82.72;99064.34;5071074;28;20219;-67
2022/11/25 01:51:48;;;;;;;0.67;0.67;;;;;;;9.45;82.77;99075.38;5070407;28;20223;-67
2022/11/25 01:54:18;;;;;;;0.60;0.60;;;;;;;9.46;82.69;99069.41;5069950;28;20200;-67
2022/11/25 01:56:48;;;;;;;0.50;0.50;;;;;;;9.41;83.03;99067.84;5071240;28;20196;-67
2022/11/25 01:59:15;;;;;;;0.70;0.70;;;;;;;9.37;83.51;99058.59;5070944;28;20253;-67
2022/11/25 02:01:42;;;;;;;0.77;0.77;;;;;;;9.47;82.88;99076.16;5067645;28;20624;-67
2022/11/25 02:04:13;;;;;;;0.47;0.47;;;;;;;9.48;83.24;99077.00;5070466;28;20673;-67
2022/11/25 02:06:49;;;;;;;0.40;0.40;;;;;;;9.45;83.01;99083.06;5071243;28;20208;-67
2022/11/25 02:09:18;;;;;;;0.60;0.60;;;;;;;9.47;83.17;99081.28;5071093;28;20236;-67
2022/11/25 02:11:46;;;;;;;0.50;0.50;;;;;;;9.44;82.93;99077.97;5070821;28;20211;-67
2022/11/25 02:14:15;;;;;;;0.67;0.67;;;;;;;9.42;83.40;99083.16;5070607;28;20561;-68
2022/11/25 02:16:42;;;;;;;0.50;0.50;;;;;;;9.42;83.28;99083.16;5070991;28;20629;-67
2022/11/25 02:19:20;;;;;;;0.50;0.50;;;;;;;9.45;83.81;99085.63;5070406;28;20199;-67
2022/11/25 02:21:54;;;;;;;0.53;0.53;;;;;;;9.35;83.37;99061.19;5067679;28;20242;-67
2022/11/25 02:24:30;;;;;;;0.60;0.60;;;;;;;9.44;83.39;99091.59;5070426;28;20249;-68
2022/11/25 02:26:58;;;;;;;0.50;0.50;;;;;;;9.42;83.62;99088.28;5070063;28;20210;-68
2022/11/25 02:29:26;;;;;;;0.60;0.60;;;;;;;9.41;83.66;99088.31;5070404;28;20679;-67
2022/11/25 02:31:52;;;;;;;0.70;0.70;;;;;;;9.40;83.65;99087.47;5070596;28;20216;-68
2022/11/25 02:34:19;;;;;;;0.70;0.70;;;;;;;9.39;83.74;99092.66;5070362;28;20192;-67
2022/11/25 02:36:46;;;;;;;0.60;0.60;;;;;;;9.41;84.10;99091.72;5070947;28;20576;-67
2022/11/25 02:39:13;;;;;;;0.70;0.70;;;;;;;9.27;83.99;99063.13;5069133;28;20230;-67
2022/11/25 02:41:42;;;;;;;0.60;0.60;;;;;;;9.39;83.30;99087.53;5067789;28;20266;-67
2022/11/25 02:44:10;;;;;;;0.50;0.50;;;;;;;9.40;83.94;99092.56;5070487;28;20618;-67
2022/11/25 02:46:37;;;;;;;0.90;0.90;;;;;;;9.36;84.32;99097.84;5068908;28;20193;-67
2022/11/25 02:49:04;;;;;;;0.77;0.77;;;;;;;9.39;83.72;99098.59;5070441;28;20203;-67
2022/11/25 02:51:32;;;;;;;0.60;0.60;;;;;;;9.36;83.48;99088.47;5069803;28;20289;-67
2022/11/25 02:53:59;;;;;;;0.73;0.73;;;;;;;9.36;83.36;99093.59;5069699;28;20246;-67
2022/11/25 02:56:28;;;;;;;0.60;0.60;;;;;;;9.36;83.24;99091.03;5070105;28;20200;-67
2022/11/25 02:58:54;;;;;;;0.70;0.70;;;;;;;9.35;83.62;99091.91;5070602;28;20200;-67
2022/11/25 03:01:23;;;;;;;0.70;0.70;;;;;;;9.37;82.88;99090.13;5070527;28;20248;-67
2022/11/25 03:03:49;;;;;;;0.50;0.50;;;;;;;9.39;83.24;99093.47;5069337;28;20226;-67
2022/11/25 03:06:16;;;;;;;0.60;0.60;;;;;;;9.38;82.65;99101.19;5069943;28;20200;-67
2022/11/25 03:08:44;;;;;;;0.50;0.50;;;;;;;9.20;82.49;99065.94;5070348;28;20196;-67
2022/11/25 03:11:10;;;;;;;0.50;0.50;;;;;;;9.39;83.11;99097.75;5070247;28;20216;-67
2022/11/25 03:13:37;;;;;;;0.50;0.50;;;;;;;9.38;82.99;99090.97;5071321;28;20196;-67
2022/11/25 03:16:04;;;;;;;0.43;0.43;;;;;;;9.39;82.48;99090.09;5074111;28;20238;-67
2022/11/25 03:18:33;;;;;;;0.70;0.70;;;;;;;9.37;82.27;99094.44;5074281;28;20209;-67
2022/11/25 03:20:59;;;;;;;0.50;0.50;;;;;;;9.36;82.39;99090.19;5074148;28;20207;-67
2022/11/25 03:23:26;;;;;;;0.60;0.60;;;;;;;9.37;83.09;99094.44;5074267;28;20650;-67
2022/11/25 03:25:53;;;;;;;0.47;0.47;;;;;;;9.34;83.23;99085.09;5073547;28;20196;-67
2022/11/25 03:28:20;;;;;;;0.60;0.60;;;;;;;9.30;82.84;99086.09;5073051;28;20204;-66
2022/11/25 03:30:47;;;;;;;0.60;0.60;;;;;;;9.32;83.17;99081.75;5073568;28;20298;-67
2022/11/25 03:33:13;;;;;;;1.23;1.23;;;;;;;9.31;83.61;99085.19;5073977;28;20196;-67
2022/11/25 03:35:42;;;;;;;0.60;0.60;;;;;;;9.29;83.46;99092.09;5073504;28;20196;-67
2022/11/25 03:38:08;;;;;;;0.50;0.50;;;;;;;9.28;83.01;99094.66;5071492;28;20211;-67
2022/11/25 03:40:35;;;;;;;0.60;0.60;;;;;;;9.31;83.05;99089.47;5073051;28;20212;-67
2022/11/25 03:43:02;;;;;;;0.50;0.50;;;;;;;9.26;83.20;99091.34;5073837;28;20597;-67
2022/11/25 03:45:29;;;;;;;0.60;0.60;;;;;;;9.24;83.37;99093.91;5073452;28;20585;-67
2022/11/25 03:47:56;;;;;;;0.50;0.50;;;;;;;9.26;83.89;99089.63;5072965;28;20318;-67
2022/11/25 03:50:22;;;;;;;0.73;0.73;;;;;;;9.28;83.43;99090.41;5073312;28;20698;-67
2022/11/25 03:52:50;;;;;;;0.60;0.60;;;;;;;9.22;83.16;99095.69;5073738;28;20196;-67
2022/11/25 03:55:17;;;;;;;0.40;0.40;;;;;;;9.24;83.67;99104.16;5073198;28;20200;-66
2022/11/25 03:57:44;;;;;;;0.73;0.73;;;;;;;9.24;83.41;99109.28;5073269;28;20212;-67
2022/11/25 04:00:12;;;;;;;0.57;0.57;;;;;;;9.24;83.40;99108.47;5073250;28;20200;-67
2022/11/25 04:02:39;;;;;;;0.60;0.60;;;;;;;9.24;82.97;99114.38;5073183;28;20196;-67
2022/11/25 04:05:07;;;;;;;0.80;0.80;;;;;;;9.20;82.95;99107.72;5073026;28;20541;-67
2022/11/25 04:07:33;;;;;;;0.60;0.60;;;;;;;9.26;82.12;99122.88;5073300;28;20211;-67
2022/11/25 04:10:02;;;;;;;0.50;0.50;;;;;;;9.30;82.53;99118.50;5073360;28;20200;-67
2022/11/25 04:12:45;;;;;;;0.50;0.50;;;;;;;9.28;82.32;99118.53;5073139;28;20715;-67
2022/11/25 04:15:12;;;;;;;0.50;0.50;;;;;;;9.28;81.75;99126.22;5071834;28;20227;-68
2022/11/25 04:17:39;;;;;;;0.60;0.60;;;;;;;9.29;81.73;99125.34;5073001;28;20207;-67
2022/11/25 04:20:07;;;;;;;0.97;0.97;;;;;;;9.30;81.94;99121.06;5073348;28;20595;-67
2022/11/25 04:22:33;;;;;;;0.50;0.50;;;;;;;9.30;82.51;99129.56;5072902;28;20254;-67
2022/11/25 04:25:02;;;;;;;0.57;0.57;;;;;;;9.27;82.55;99141.63;5071729;28;20630;-67
2022/11/25 04:27:28;;;;;;;0.50;0.50;;;;;;;9.27;82.77;99137.31;5072622;28;20196;-67
2022/11/25 04:29:55;;;;;;;0.50;0.50;;;;;;;9.27;83.19;99134.75;5072895;28;20204;-67
2022/11/25 04:32:22;;;;;;;0.40;0.40;;;;;;;9.27;83.25;99139.06;5072775;28;20722;-67
2022/11/25 04:34:49;;;;;;;0.53;0.53;;;;;;;9.06;83.16;99109.81;5072097;28;20200;-67
2022/11/25 04:37:16;;;;;;;0.60;0.60;;;;;;;9.27;82.87;99137.31;5071782;28;20204;-67
2022/11/25 04:39:42;;;;;;;0.50;0.50;;;;;;;9.30;83.22;99149.19;5072504;28;20672;-67
2022/11/25 04:44:51;;;;;;;0.83;0.83;;;;;;;9.31;82.92;99145.75;5068599;28;20198;-67
2022/11/25 04:47:18;;;;;;;0.60;0.60;;;;;;;9.26;83.30;99148.44;5072842;28;20273;-67
2022/11/25 04:49:45;;;;;;;0.50;0.50;;;;;;;9.22;83.68;99146.84;5070997;28;20212;-66
2022/11/25 04:52:11;;;;;;;0.60;0.60;;;;;;;9.23;83.16;99153.66;5071895;28;20223;-67
2022/11/25 04:54:38;;;;;;;0.70;0.70;;;;;;;9.14;83.36;99138.56;5071855;28;20196;-67
2022/11/25 04:57:05;;;;;;;0.50;0.50;;;;;;;9.13;83.41;99146.28;5072185;28;20612;-67
2022/11/25 04:59:38;;;;;;;0.57;0.57;;;;;;;9.12;83.41;99149.69;5069831;28;20250;-67
2022/11/25 05:02:05;;;;;;;0.50;0.50;;;;;;;9.15;82.70;99150.47;5071692;28;20563;-66
2022/11/25 05:04:32;;;;;;;0.53;0.53;;;;;;;9.13;82.82;99152.22;5071629;28;20216;-67
2022/11/25 05:06:59;;;;;;;0.60;0.60;;;;;;;9.15;82.79;99168.34;5072525;28;20192;-67
2022/11/25 05:09:26;;;;;;;0.50;0.50;;;;;;;9.15;83.17;99160.69;5072049;28;20680;-67
2022/11/25 05:11:52;;;;;;;0.67;0.67;;;;;;;9.14;82.21;99159.03;5071617;28;20277;-67
2022/11/25 05:14:19;;;;;;;0.80;0.80;;;;;;;9.19;82.03;99172.50;5071730;28;20250;-67
2022/11/25 05:16:48;;;;;;;0.40;0.40;;;;;;;9.24;81.50;99169.84;5071709;28;20274;-66
2022/11/25 05:19:14;;;;;;;0.50;0.50;;;;;;;9.25;81.43;99182.56;5072138;28;20265;-67
2022/11/25 05:21:41;;;;;;;0.60;0.60;;;;;;;9.25;81.92;99181.72;5071712;28;20246;-67
2022/11/25 05:24:08;;;;;;;0.90;0.87;;;;;;;9.24;81.24;99188.56;5071452;28;20204;-68
2022/11/25 05:26:35;;;;;;;0.80;0.80;;;;;;;9.25;81.97;99197.91;5067499;28;20203;-68
2022/11/25 05:29:02;;;;;;;0.60;0.60;;;;;;;9.26;82.01;99197.03;5064200;28;20204;-68
2022/11/25 05:31:28;;;;;;;0.60;0.60;;;;;;;9.28;81.66;99197.81;5066355;28;20621;-65
2022/11/25 05:33:59;;;;;;;0.63;0.63;;;;;;;9.28;81.88;99195.28;5069406;28;20212;-66
2022/11/25 05:36:26;;;;;;;0.63;0.63;;;;;;;9.18;82.12;99188.72;5067675;28;20199;-66
2022/11/25 05:38:53;;;;;;;0.67;0.67;;;;;;;9.24;82.26;99196.22;5070356;28;20694;-66
2022/11/25 05:41:20;;;;;;;0.50;0.50;;;;;;;9.24;82.50;99209.00;5071725;28;20249;-66
2022/11/25 05:43:46;;;;;;;0.70;0.70;;;;;;;9.32;82.34;99214.78;5071335;28;20195;-66
2022/11/25 05:46:13;;;;;;;0.60;0.60;;;;;;;9.32;82.85;99222.44;5071003;28;20291;-68
2022/11/25 05:48:40;;;;;;;0.50;0.50;;;;;;;9.33;83.20;99231.81;5071408;28;20200;-68
2022/11/25 05:51:08;;;;;;;0.57;0.57;;;;;;;9.30;83.00;99211.44;5070716;28;20228;-68
2022/11/25 05:53:36;;;;;;;0.43;0.43;;;;;;;9.31;83.31;99228.44;5069730;28;20671;-66
2022/11/25 05:56:05;;;;;;;0.60;0.60;;;;;;;9.32;83.32;99231.84;5070684;28;20200;-66
2022/11/25 05:58:33;;;;;;;0.50;0.50;;;;;;;9.35;83.42;99245.38;5070879;28;20200;-66
2022/11/25 06:01:00;;;;;;;0.63;0.63;;;;;;;9.37;83.00;99255.59;5070661;28;20207;-68
2022/11/25 06:03:28;;;;;;;0.57;0.57;;;;;;;9.27;83.46;99234.50;5070833;28;20207;-68
2022/11/25 06:05:56;;;;;;;0.40;0.40;;;;;;;9.43;83.02;99269.00;5070664;28;20733;-68
2022/11/25 06:08:24;;;;;;;0.93;0.93;;;;;;;9.47;83.06;99275.75;5070772;28;20298;-69
2022/11/25 06:10:51;;;;;;;0.60;0.60;;;;;;;9.47;83.34;99280.84;5070652;28;20196;-68
2022/11/25 06:13:18;;;;;;;0.57;0.57;;;;;;;9.43;83.29;99274.13;5070319;28;20220;-68
2022/11/25 06:15:45;;;;;;;0.67;0.67;;;;;;;9.48;83.14;99281.69;5070423;28;20246;-68
2022/11/25 06:18:15;;;;;;;0.40;0.40;;;;;;;9.47;83.83;99288.53;5070626;28;20254;-68
2022/11/25 06:20:42;;;;;;;0.60;0.60;;;;;;;9.52;82.94;99290.97;5071039;28;20196;-68
2022/11/25 06:23:09;;;;;;;0.70;0.70;;;;;;;9.55;83.48;99302.84;5066661;28;20200;-68
2022/11/25 06:25:37;;;;;;;1.07;1.07;;;;;;;9.53;83.49;99302.91;5068600;28;20200;-66
2022/11/25 06:28:04;;;;;;;0.40;0.40;;;;;;;9.53;83.42;99309.72;5069671;28;20518;-66
2022/11/25 06:30:31;;;;;;;0.60;0.60;;;;;;;9.60;83.54;99313.78;5067326;28;20686;-68
2022/11/25 06:32:58;;;;;;;0.60;0.60;;;;;;;9.62;82.82;99318.00;5068394;28;20227;-68
2022/11/25 06:35:25;;;;;;;0.50;0.50;;;;;;;9.63;82.89;99326.50;5064648;28;20204;-65
2022/11/25 06:37:52;;;;;;;0.60;0.60;;;;;;;9.60;82.62;99321.44;5065497;28;20200;-65
2022/11/25 06:40:19;;;;;;;0.60;0.60;;;;;;;9.66;82.44;99331.53;5065142;28;20204;-64
2022/11/25 06:42:47;;;;;;;0.60;0.60;;;;;;;9.68;82.56;99334.88;5065375;28;20664;-65
2022/11/25 06:45:14;;;;;;;0.70;0.70;;;;;;;9.70;82.27;99333.13;5059468;28;20650;-68
2022/11/25 06:47:40;;;;;;;0.80;0.80;;;;;;;9.69;82.18;99334.03;5067580;28;20611;-66
2022/11/25 06:50:08;;;;;;;0.60;0.60;;;;;;;9.74;81.91;99344.97;5067779;28;20227;-68
2022/11/25 06:52:35;;;;;;;0.57;0.57;;;;;;;9.72;82.05;99341.63;5067614;28;20709;-66
2022/11/25 06:55:02;;;;;;;0.43;0.43;;;;;;;9.75;81.61;99346.66;5068104;28;20207;-65
2022/11/25 06:57:29;;;;;;;0.40;0.40;;;;;;;9.76;81.14;99350.88;5068151;28;20210;-66
2022/11/25 06:59:57;;;;;;;0.70;0.70;;;;;;;9.76;81.35;99349.16;5065859;28;20204;-66
2022/11/25 07:02:24;;;;;;;0.67;0.67;;;;;;;9.78;81.06;99351.69;5065715;28;20200;-68
2022/11/25 07:04:50;;;;;;;0.73;0.73;;;;;;;9.74;81.29;99352.63;5065825;28;20216;-66
2022/11/25 07:07:17;;;;;;;0.87;0.87;;;;;;;9.78;81.27;99356.78;5069733;28;20258;-67
2022/11/25 07:09:44;;;;;;;0.60;0.60;;;;;;;9.76;81.82;99364.50;5068475;28;20227;-66
2022/11/25 07:12:12;;;;;;;0.60;0.60;;;;;;;9.80;81.64;99373.78;5067361;28;20596;-66
2022/11/25 07:14:38;;;;;;;0.70;0.70;;;;;;;9.84;80.85;99369.44;5068888;28;20290;-66
2022/11/25 07:17:07;;;;;;;0.50;0.50;;;;;;;9.80;81.27;99360.16;5069366;28;20196;-66
2022/11/25 07:19:34;;;;;;;0.50;0.50;;;;;;;9.81;81.60;99377.19;5069463;28;20238;-67
2022/11/25 07:22:01;;;;;;;3.07;2.77;;;;;;;9.87;81.75;99377.03;5067910;28;20196;-68
2022/11/25 07:24:28;;;;;;;0.63;0.63;;;;;;;9.81;81.46;99382.31;5067039;28;20196;-67
2022/11/25 07:26:55;;;;;;;0.50;0.50;;;;;;;9.91;81.49;99379.47;5069522;28;20683;-67
2022/11/25 07:29:22;;;;;;;0.40;0.40;;;;;;;9.77;81.46;99366.19;5068424;28;20208;-67
2022/11/25 07:31:48;;;;;;;0.57;0.57;;;;;;;9.85;81.82;99359.16;5070197;28;20602;-67
2022/11/25 07:34:19;;;;;;;0.67;0.67;;;;;;;9.94;81.42;99393.91;5070343;28;20207;-67
2022/11/25 07:36:47;;;;;;;0.60;0.60;;;;;;;9.99;80.59;99381.78;5070606;28;20253;-66
2022/11/25 07:39:16;;;;;;;0.63;0.63;;;;;;;9.92;81.17;99370.03;5069902;28;20664;-67
2022/11/25 07:41:43;;;;;;;0.70;0.70;;;;;;;9.97;80.67;99375.88;5070245;28;20675;-66
2022/11/25 07:44:12;;;;;;;0.50;0.50;;;;;;;9.96;80.64;99377.59;5070197;28;20660;-66
2022/11/25 07:46:41;;;;;;;0.60;0.60;;;;;;;10.15;80.47;99393.31;5070294;28;20192;-66
2022/11/25 07:49:10;;;;;;;0.77;0.77;;;;;;;9.99;80.55;99374.09;5069782;28;20652;-65
2022/11/25 07:51:40;;;;;;;0.60;0.60;;;;;;;10.23;79.10;99406.75;5069260;28;20224;-66
2022/11/25 07:54:09;;;;;;;0.93;0.93;;;;;;;10.26;79.43;99396.41;5070254;28;20204;-67
2022/11/25 07:56:38;;;;;;;0.57;0.57;;;;;;;10.28;78.80;99409.16;5068789;28;20249;-66
2022/11/25 07:59:06;;;;;;;0.50;0.50;;;;;;;10.25;78.55;99399.84;5070023;28;20200;-66
2022/11/25 08:01:33;;;;;;;0.70;0.70;;;;;;;10.26;78.20;99409.22;5072396;28;20709;-66
2022/11/25 08:03:59;;;;;;;0.60;0.60;;;;;;;10.31;77.75;99415.03;5073496;28;20196;-66
2022/11/25 08:06:28;;;;;;;0.60;0.60;;;;;;;10.14;78.77;99386.53;5073590;28;20667;-66
2022/11/25 08:08:57;;;;;;;0.70;0.70;;;;;;;10.32;78.02;99411.63;5073577;28;20718;-65
2022/11/25 08:11:26;;;;;;;0.80;0.80;;;;;;;10.31;77.78;99417.63;5069798;28;20233;-66
2022/11/25 08:13:53;;;;;;;0.50;0.50;;;;;;;10.42;77.31;99412.19;5069284;28;20227;-66
2022/11/25 08:16:21;;;;;;;0.40;0.40;;;;;;;10.47;76.75;99416.28;5071165;28;20211;-67
2022/11/25 08:18:48;;;;;;;0.50;0.50;;;;;;;10.73;75.71;99422.34;5072516;28;20199;-67
2022/11/25 08:21:17;;;;;;;0.50;0.50;;;;;;;11.00;74.33;99429.22;5072586;28;20211;-67
2022/11/25 08:23:47;;;;;;;0.50;0.50;;;;;;;11.17;73.39;99428.69;5071941;28;20215;-66
2022/11/25 08:26:17;;;;;;;0.60;0.60;;;;;;;11.27;72.32;99438.59;5073009;28;20254;-66
2022/11/25 08:28:45;;;;;;;0.50;0.50;;;;;;;11.47;72.54;99433.63;5070106;28;20684;-67
2022/11/25 08:31:15;;;;;;;0.50;0.50;;;;;;;11.57;71.23;99440.16;5073377;28;20208;-67
2022/11/25 08:33:43;;;;;;;0.47;0.47;;;;;;;11.72;70.38;99432.84;5073066;28;20215;-67
2022/11/25 08:36:11;;;;;;;0.60;0.60;;;;;;;11.78;69.18;99427.50;5068970;28;20238;-66
2022/11/25 08:38:39;;;;;;;0.50;0.50;;;;;;;11.74;69.30;99418.22;5072229;28;20306;-65
2022/11/25 08:41:10;;;;;;;0.53;0.53;;;;;;;11.78;69.57;99432.63;5072017;28;20192;-65
2022/11/25 08:43:39;;;;;;;0.50;0.50;;;;;;;11.77;69.02;99426.66;5070492;28;20227;-64
2022/11/25 08:46:10;;;;;;;0.40;0.40;;;;;;;11.90;68.80;99440.75;5073015;28;20248;-64
2022/11/25 08:48:38;;;;;;;0.50;0.50;;;;;;;12.12;68.36;99432.31;5072834;28;20705;-66
2022/11/25 08:51:09;;;;;;;0.43;0.43;;;;;;;12.29;67.16;99435.09;5072135;28;20273;-64
2022/11/25 08:53:36;;;;;;;0.40;0.40;;;;;;;12.48;67.19;99446.38;5072881;28;20245;-65
2022/11/25 08:56:03;;;;;;;0.50;0.50;;;;;;;12.55;64.80;99432.41;5072701;28;20258;-66
2022/11/25 08:58:30;;;;;;;0.40;0.40;;;;;;;12.59;65.18;99432.22;5071102;28;20219;-65
2022/11/25 09:00:58;;;;;;;0.50;0.50;;;;;;;12.80;64.71;99433.13;5072548;28;20648;-65
2022/11/25 09:03:25;;;;;;;0.50;0.50;;;;;;;12.91;64.15;99441.28;5072655;28;20204;-65
2022/11/25 09:05:53;;;;;;;0.40;0.40;;;;;;;12.76;63.51;99444.47;5072610;28;20204;-65
2022/11/25 09:08:20;;;;;;;0.50;0.50;;;;;;;12.73;63.23;99448.88;5071593;28;20201;-65
2022/11/25 09:10:47;;;;;;;0.50;0.50;;;;;;;12.73;64.41;99438.59;5071578;28;20208;-65
2022/11/25 09:13:13;;;;;;;0.43;0.43;;;;;;;12.62;63.70;99434.69;5072548;28;20715;-65
2022/11/25 09:15:40;;;;;;;0.50;0.50;;;;;;;12.60;64.67;99439.03;5072657;28;20196;-65
2022/11/25 09:18:10;;;;;;;0.40;0.40;;;;;;;12.78;63.71;99441.81;5072285;28;20222;-64
2022/11/25 09:20:38;;;;;;;0.60;0.60;;;;;;;12.90;64.58;99438.75;5072035;28;20200;-65
2022/11/25 09:23:06;;;;;;;0.60;0.60;;;;;;;12.92;63.13;99447.28;5068229;28;20648;-64
2022/11/25 09:25:33;;;;;;;0.57;0.57;;;;;;;12.74;62.64;99447.97;5070983;28;20215;-66
2022/11/25 09:28:00;;;;;;;0.50;0.50;;;;;;;12.62;64.09;99444.97;5071814;28;20196;-66
2022/11/25 09:30:27;;;;;;;0.47;0.47;;;;;;;12.53;63.82;99437.63;5070717;28;20258;-65
2022/11/25 09:32:55;;;;;;;0.50;0.50;;;;;;;12.49;64.73;99438.63;5072187;28;20212;-66
2022/11/25 09:35:25;;;;;;;0.50;0.50;;;;;;;12.55;64.13;99438.38;5071940;28;20196;-66
2022/11/25 09:37:52;;;;;;;0.47;0.47;;;;;;;12.61;63.33;99448.44;5072122;28;20215;-66
2022/11/25 09:40:24;;;;;;;0.50;0.50;;;;;;;12.53;63.34;99440.19;5070686;28;20211;-66
2022/11/25 09:48:58;;;;;;;0.47;0.47;;;;;;;13.28;65.27;99445.03;5070630;28;20207;-65
2022/11/25 09:51:36;;;;;;;0.50;0.50;;;;;;;13.60;61.86;99441.97;5071334;28;20284;-65
2022/11/25 09:54:11;;;;;;;0.50;0.50;;;;;;;13.74;61.20;99439.63;5071433;28;20215;-65
2022/11/25 09:56:42;;;;;;;0.50;0.50;;;;;;;13.68;59.75;99443.31;5071571;28;20204;-66
2022/11/25 09:59:18;;;;;;;0.40;0.40;;;;;;;13.60;60.39;99437.63;5071666;28;20658;-66
2022/11/25 10:01:49;;;;;;;0.40;0.40;;;;;;;13.58;59.74;99444.59;5068206;28;20278;-66
2022/11/25 10:04:22;;;;;;;0.50;0.50;;;;;;;13.76;59.69;99426.69;5070574;28;20208;-67
2022/11/25 10:06:55;;;;;;;0.60;0.60;;;;;;;14.03;58.03;99433.22;5070603;28;20196;-67
2022/11/25 10:09:25;;;;;;;0.60;0.60;;;;;;;14.16;56.78;99426.63;5069988;28;20204;-66
2022/11/25 10:11:54;;;;;;;0.40;0.40;;;;;;;14.28;56.90;99428.66;5070737;28;20610;-67
2022/11/25 10:14:32;;;;;;;0.50;0.50;;;;;;;14.35;57.58;99435.25;5070317;28;20273;-66
2022/11/25 10:17:07;;;;;;;0.40;0.40;;;;;;;14.26;55.42;99427.88;5070110;28;20533;-66
2022/11/25 10:19:43;;;;;;;0.60;0.60;;;;;;;14.23;56.67;99433.19;5067128;28;20257;-67
2022/11/25 10:22:22;;;;;;;0.50;0.50;;;;;;;14.12;55.49;99430.22;5067078;28;20303;-67
2022/11/25 10:24:51;;;;;;;0.33;0.33;;;;;;;14.03;55.03;99415.16;5067669;28;20250;-67
2022/11/25 10:27:22;;;;;;;0.50;0.50;;;;;;;13.98;55.68;99417.13;5070476;28;20226;-67
2022/11/25 10:30:01;;;;;;;0.67;0.67;;;;;;;14.04;55.18;99422.00;5069518;28;20211;-66
2022/11/25 10:32:36;;;;;;;0.40;0.40;;;;;;;14.04;55.12;99416.84;5069732;28;20226;-67
2022/11/25 10:35:11;;;;;;;0.57;0.57;;;;;;;14.13;54.20;99412.13;5069963;28;20195;-67
2022/11/25 10:37:44;;;;;;;0.47;0.47;;;;;;;14.13;54.80;99419.03;5069097;28;20195;-67
2022/11/25 10:40:15;;;;;;;0.60;0.60;;;;;;;14.13;55.17;99411.28;5070118;28;20196;-67
2022/11/25 10:42:43;;;;;;;0.50;0.50;;;;;;;14.18;55.92;99406.78;5064686;28;20251;-67
2022/11/25 10:45:10;;;;;;;0.43;0.43;;;;;;;14.19;56.17;99411.84;5067702;28;20200;-65
2022/11/25 10:47:51;;;;;;;0.47;0.47;;;;;;;14.25;55.39;99408.16;5068424;28;20204;-66
2022/11/25 10:50:27;;;;;;;0.50;0.50;;;;;;;14.25;54.88;99410.72;5069614;28;20227;-66
2022/11/25 10:53:00;;;;;;;0.40;0.40;;;;;;;14.29;54.39;99401.97;5068467;28;20215;-65
2022/11/25 10:55:31;;;;;;;0.50;0.50;;;;;;;14.26;53.90;99402.09;5069072;28;20210;-65
2022/11/25 10:57:59;;;;;;;0.50;0.50;;;;;;;14.30;54.37;99400.22;5069290;28;20208;-65
2022/11/25 11:00:29;;;;;;;0.50;0.50;;;;;;;14.34;54.71;99400.06;5070022;28;20580;-65
2022/11/25 11:02:57;;;;;;;0.60;0.60;;;;;;;14.45;55.38;99402.97;5068297;28;20879;-65
2022/11/25 11:05:28;;;;;;;0.50;0.50;;;;;;;14.46;53.80;99398.66;5069490;28;20275;-65
2022/11/25 11:08:18;;;;;;;0.60;0.60;;;;;;;14.42;54.89;99413.44;5065813;28;20663;-66
2022/11/25 11:10:46;;;;;;;0.40;0.40;;;;;;;14.39;53.79;99413.56;5061056;28;20200;-65
2022/11/25 11:13:24;;;;;;;0.50;0.50;;;;;;;14.33;53.96;99413.84;5068039;28;20225;-65
2022/11/25 11:15:52;;;;;;;0.63;0.63;;;;;;;14.40;54.01;99404.09;5065982;28;20652;-65
2022/11/25 11:18:26;;;;;;;0.50;0.50;;;;;;;14.49;53.70;99409.66;5067682;28;20757;-66
2022/11/25 11:20:54;;;;;;;0.40;0.40;;;;;;;14.24;53.71;99382.47;5067425;28;20215;-65
2022/11/25 11:23:23;;;;;;;0.50;0.50;;;;;;;14.48;54.66;99407.16;5068543;28;20200;-66
2022/11/25 11:25:59;;;;;;;0.47;0.47;;;;;;;14.52;54.34;99422.44;5068290;28;20209;-65
2022/11/25 11:28:37;;;;;;;0.37;0.37;;;;;;;14.35;53.61;99391.41;5065996;28;20690;-66
2022/11/25 11:31:08;;;;;;;0.50;0.50;;;;;;;14.53;53.70;99411.22;5069684;28;20195;-65
2022/11/25 11:33:37;;;;;;;0.30;0.30;;;;;;;14.35;52.93;99381.09;5068386;28;20269;-66
2022/11/25 11:36:21;;;;;;;0.40;0.40;;;;;;;14.43;53.22;99399.63;5073746;28;20556;-65
2022/11/25 11:38:53;;;;;;;0.40;0.40;;;;;;;14.49;53.30;99409.66;5072659;28;20242;-65
2022/11/25 11:41:31;;;;;;;0.50;0.50;;;;;;;14.46;53.97;99396.06;5073065;28;20621;-67
2022/11/25 11:44:22;;;;;;;1.03;1.03;;;;;;;14.53;54.68;99416.38;5073625;28;20196;-66
2022/11/25 11:47:04;;;;;;;0.50;0.50;;;;;;;14.53;54.27;99405.22;5072866;28;20208;-67
2022/11/25 11:49:49;;;;;;;0.43;0.43;;;;;;;14.48;53.44;99408.00;5070616;28;20208;-66
2022/11/25 11:52:26;;;;;;;0.40;0.40;;;;;;;14.50;53.14;99402.78;5071519;28;20211;-66
2022/11/25 11:55:01;;;;;;;0.50;0.50;;;;;;;14.46;53.37;99403.81;5071036;28;20216;-66
2022/11/25 11:57:36;;;;;;;0.70;0.70;;;;;;;14.48;53.89;99422.63;5068369;28;20200;-66
2022/11/25 12:00:06;;;;;;;0.50;0.50;;;;;;;14.32;55.65;99421.63;5073801;28;20580;-66